Terminal Aerodrome Forecast
Issued by NWS Topeka, KS

Home | Current Version | Previous Version | Text Only | Print | Product List | Glossary On
Versions: 1 2 3 4 5 6 7 8 9 10 11 12 13 14 15 16 17 18 19 20
804
FTUS43 KTOP 171134
TAFTOP
TAF
KTOP 171134Z 1712/1812 19004KT P6SM SKC WS007/22035KT
     FM171300 20007KT P6SM SKC
     FM171600 20010G18KT P6SM SKC=

USA.gov is the U.S. government's official web portal to all federal, state and local government web resources and services.